sensor_id;sensor_type;location;lat;lon;timestamp;temperature;humidity
13606;DHT22;6874;52.084;5.090;2023-07-13T00:00:41;19.30;74.50
13606;DHT22;6874;52.084;5.090;2023-07-13T00:03:07;19.30;74.60
13606;DHT22;6874;52.084;5.090;2023-07-13T00:05:32;19.30;74.40
13606;DHT22;6874;52.084;5.090;2023-07-13T00:07:58;19.30;74.20
13606;DHT22;6874;52.084;5.090;2023-07-13T00:10:24;19.30;74.40
13606;DHT22;6874;52.084;5.090;2023-07-13T00:12:50;19.30;74.60
13606;DHT22;6874;52.084;5.090;2023-07-13T00:15:24;19.20;74.50
13606;DHT22;6874;52.084;5.090;2023-07-13T00:17:54;19.20;74.50
13606;DHT22;6874;52.084;5.090;2023-07-13T00:20:22;19.20;74.70
13606;DHT22;6874;52.084;5.090;2023-07-13T00:22:52;19.20;74.70
13606;DHT22;6874;52.084;5.090;2023-07-13T00:25:20;19.20;74.80
13606;DHT22;6874;52.084;5.090;2023-07-13T00:27:47;19.20;74.50
13606;DHT22;6874;52.084;5.090;2023-07-13T00:30:16;19.10;74.90
13606;DHT22;6874;52.084;5.090;2023-07-13T00:32:42;19.10;74.90
13606;DHT22;6874;52.084;5.090;2023-07-13T00:35:08;19.10;74.90
13606;DHT22;6874;52.084;5.090;2023-07-13T00:37:34;19.10;75.30
13606;DHT22;6874;52.084;5.090;2023-07-13T00:40:02;19.10;75.00
13606;DHT22;6874;52.084;5.090;2023-07-13T00:42:29;19.10;75.00
13606;DHT22;6874;52.084;5.090;2023-07-13T00:45:06;19.10;75.10
13606;DHT22;6874;52.084;5.090;2023-07-13T00:47:32;19.10;75.20
13606;DHT22;6874;52.084;5.090;2023-07-13T00:49:58;19.00;75.20
13606;DHT22;6874;52.084;5.090;2023-07-13T00:52:24;19.00;75.20
13606;DHT22;6874;52.084;5.090;2023-07-13T00:54:50;19.00;75.20
13606;DHT22;6874;52.084;5.090;2023-07-13T00:57:18;18.90;75.50
13606;DHT22;6874;52.084;5.090;2023-07-13T00:59:48;18.90;75.50
13606;DHT22;6874;52.084;5.090;2023-07-13T01:02:14;18.90;75.30
13606;DHT22;6874;52.084;5.090;2023-07-13T01:04:41;18.90;75.40
13606;DHT22;6874;52.084;5.090;2023-07-13T01:07:10;18.90;75.40
13606;DHT22;6874;52.084;5.090;2023-07-13T01:09:37;18.80;75.50
13606;DHT22;6874;52.084;5.090;2023-07-13T01:12:03;18.80;75.40
13606;DHT22;6874;52.084;5.090;2023-07-13T01:14:29;18.80;75.40
13606;DHT22;6874;52.084;5.090;2023-07-13T01:16:54;18.80;75.50
13606;DHT22;6874;52.084;5.090;2023-07-13T01:19:40;18.80;75.90
13606;DHT22;6874;52.084;5.090;2023-07-13T01:22:16;18.70;75.90
13606;DHT22;6874;52.084;5.090;2023-07-13T01:24:47;18.70;75.70
13606;DHT22;6874;52.084;5.090;2023-07-13T01:27:16;18.70;75.60
13606;DHT22;6874;52.084;5.090;2023-07-13T01:29:43;18.60;75.80
13606;DHT22;6874;52.084;5.090;2023-07-13T01:32:23;18.60;75.90
13606;DHT22;6874;52.084;5.090;2023-07-13T01:34:50;18.60;75.80
13606;DHT22;6874;52.084;5.090;2023-07-13T01:37:20;18.60;75.80
13606;DHT22;6874;52.084;5.090;2023-07-13T01:39:46;18.60;76.00
13606;DHT22;6874;52.084;5.090;2023-07-13T01:42:12;18.60;76.10
13606;DHT22;6874;52.084;5.090;2023-07-13T01:44:38;18.50;76.10
13606;DHT22;6874;52.084;5.090;2023-07-13T01:47:04;18.50;75.80
13606;DHT22;6874;52.084;5.090;2023-07-13T01:49:30;18.50;76.20
13606;DHT22;6874;52.084;5.090;2023-07-13T01:51:55;18.50;76.20
13606;DHT22;6874;52.084;5.090;2023-07-13T01:54:21;18.50;76.30
13606;DHT22;6874;52.084;5.090;2023-07-13T01:56:47;18.50;76.30
13606;DHT22;6874;52.084;5.090;2023-07-13T01:59:13;18.50;76.20
13606;DHT22;6874;52.084;5.090;2023-07-13T02:01:39;18.40;76.20
13606;DHT22;6874;52.084;5.090;2023-07-13T02:04:05;18.40;76.50
13606;DHT22;6874;52.084;5.090;2023-07-13T02:06:30;18.40;76.80
13606;DHT22;6874;52.084;5.090;2023-07-13T02:08:57;18.40;76.80
13606;DHT22;6874;52.084;5.090;2023-07-13T02:11:22;18.30;76.60
13606;DHT22;6874;52.084;5.090;2023-07-13T02:13:48;18.30;76.80
13606;DHT22;6874;52.084;5.090;2023-07-13T02:16:14;18.30;76.70
13606;DHT22;6874;52.084;5.090;2023-07-13T02:18:40;18.30;76.90
13606;DHT22;6874;52.084;5.090;2023-07-13T02:21:06;18.30;77.10
13606;DHT22;6874;52.084;5.090;2023-07-13T02:23:31;18.20;77.20
13606;DHT22;6874;52.084;5.090;2023-07-13T02:25:59;18.20;77.30
13606;DHT22;6874;52.084;5.090;2023-07-13T02:28:25;18.20;77.50
13606;DHT22;6874;52.084;5.090;2023-07-13T02:30:51;18.20;77.30
13606;DHT22;6874;52.084;5.090;2023-07-13T02:33:17;18.20;77.70
13606;DHT22;6874;52.084;5.090;2023-07-13T02:35:43;18.10;77.50
13606;DHT22;6874;52.084;5.090;2023-07-13T02:38:09;18.10;77.30
13606;DHT22;6874;52.084;5.090;2023-07-13T02:40:35;18.10;77.40
13606;DHT22;6874;52.084;5.090;2023-07-13T02:43:01;18.10;77.50
13606;DHT22;6874;52.084;5.090;2023-07-13T02:45:27;18.00;77.90
13606;DHT22;6874;52.084;5.090;2023-07-13T02:47:53;18.00;77.90
13606;DHT22;6874;52.084;5.090;2023-07-13T02:50:19;18.00;77.70
13606;DHT22;6874;52.084;5.090;2023-07-13T02:52:45;18.00;77.90
13606;DHT22;6874;52.084;5.090;2023-07-13T02:55:11;18.00;78.00
13606;DHT22;6874;52.084;5.090;2023-07-13T02:57:36;18.00;77.80
13606;DHT22;6874;52.084;5.090;2023-07-13T03:00:03;17.90;77.90
13606;DHT22;6874;52.084;5.090;2023-07-13T03:02:33;17.90;78.00
13606;DHT22;6874;52.084;5.090;2023-07-13T03:04:59;17.90;77.90
13606;DHT22;6874;52.084;5.090;2023-07-13T03:07:25;17.90;78.00
13606;DHT22;6874;52.084;5.090;2023-07-13T03:09:57;17.90;78.10
13606;DHT22;6874;52.084;5.090;2023-07-13T03:12:23;17.90;77.90
13606;DHT22;6874;52.084;5.090;2023-07-13T03:14:49;17.80;78.00
13606;DHT22;6874;52.084;5.090;2023-07-13T03:17:15;17.80;78.00
13606;DHT22;6874;52.084;5.090;2023-07-13T03:19:41;17.80;78.10
13606;DHT22;6874;52.084;5.090;2023-07-13T03:22:07;17.80;78.40
13606;DHT22;6874;52.084;5.090;2023-07-13T03:24:33;17.70;78.30
13606;DHT22;6874;52.084;5.090;2023-07-13T03:27:01;17.70;78.20
13606;DHT22;6874;52.084;5.090;2023-07-13T03:29:27;17.70;78.40
13606;DHT22;6874;52.084;5.090;2023-07-13T03:31:53;17.70;78.40
13606;DHT22;6874;52.084;5.090;2023-07-13T03:34:18;17.70;78.10
13606;DHT22;6874;52.084;5.090;2023-07-13T03:36:44;17.60;78.60
13606;DHT22;6874;52.084;5.090;2023-07-13T03:39:10;17.60;78.40
13606;DHT22;6874;52.084;5.090;2023-07-13T03:41:36;17.60;78.50
13606;DHT22;6874;52.084;5.090;2023-07-13T03:44:01;17.60;78.60
13606;DHT22;6874;52.084;5.090;2023-07-13T03:46:28;17.60;78.70
13606;DHT22;6874;52.084;5.090;2023-07-13T03:48:54;17.60;78.80
13606;DHT22;6874;52.084;5.090;2023-07-13T03:51:20;17.50;78.60
13606;DHT22;6874;52.084;5.090;2023-07-13T03:53:46;17.50;79.10
13606;DHT22;6874;52.084;5.090;2023-07-13T03:56:14;17.50;79.20
13606;DHT22;6874;52.084;5.090;2023-07-13T03:58:41;17.50;78.90
13606;DHT22;6874;52.084;5.090;2023-07-13T04:01:09;17.50;79.10
13606;DHT22;6874;52.084;5.090;2023-07-13T04:03:36;17.50;79.40
13606;DHT22;6874;52.084;5.090;2023-07-13T04:06:03;17.50;79.50
13606;DHT22;6874;52.084;5.090;2023-07-13T04:08:33;17.50;79.50
13606;DHT22;6874;52.084;5.090;2023-07-13T04:10:59;17.50;79.50
13606;DHT22;6874;52.084;5.090;2023-07-13T04:13:26;17.50;79.60
13606;DHT22;6874;52.084;5.090;2023-07-13T04:15:53;17.40;79.50
13606;DHT22;6874;52.084;5.090;2023-07-13T04:18:19;17.40;80.20
13606;DHT22;6874;52.084;5.090;2023-07-13T04:20:46;17.40;80.00
13606;DHT22;6874;52.084;5.090;2023-07-13T04:23:11;17.40;79.90
13606;DHT22;6874;52.084;5.090;2023-07-13T04:25:37;17.40;79.80
13606;DHT22;6874;52.084;5.090;2023-07-13T04:28:04;17.40;80.20
13606;DHT22;6874;52.084;5.090;2023-07-13T04:30:30;17.40;80.30
13606;DHT22;6874;52.084;5.090;2023-07-13T04:32:55;17.40;80.30
13606;DHT22;6874;52.084;5.090;2023-07-13T04:35:22;17.40;80.70
13606;DHT22;6874;52.084;5.090;2023-07-13T04:37:49;17.40;80.20
13606;DHT22;6874;52.084;5.090;2023-07-13T04:40:16;17.40;80.40
13606;DHT22;6874;52.084;5.090;2023-07-13T04:42:43;17.40;80.60
13606;DHT22;6874;52.084;5.090;2023-07-13T04:45:09;17.40;80.60
13606;DHT22;6874;52.084;5.090;2023-07-13T04:47:35;17.40;80.80
13606;DHT22;6874;52.084;5.090;2023-07-13T04:50:01;17.40;80.80
13606;DHT22;6874;52.084;5.090;2023-07-13T04:52:27;17.40;80.80
13606;DHT22;6874;52.084;5.090;2023-07-13T04:54:52;17.40;81.10
13606;DHT22;6874;52.084;5.090;2023-07-13T04:57:18;17.40;81.70
13606;DHT22;6874;52.084;5.090;2023-07-13T04:59:43;17.40;81.50
13606;DHT22;6874;52.084;5.090;2023-07-13T05:02:10;17.40;81.40
13606;DHT22;6874;52.084;5.090;2023-07-13T05:04:35;17.40;81.60
13606;DHT22;6874;52.084;5.090;2023-07-13T05:07:01;17.40;81.60
13606;DHT22;6874;52.084;5.090;2023-07-13T05:09:27;17.40;81.90
13606;DHT22;6874;52.084;5.090;2023-07-13T05:11:52;17.40;81.90
13606;DHT22;6874;52.084;5.090;2023-07-13T05:14:18;17.40;82.00
13606;DHT22;6874;52.084;5.090;2023-07-13T05:16:43;17.40;82.00
13606;DHT22;6874;52.084;5.090;2023-07-13T05:19:09;17.40;81.90
13606;DHT22;6874;52.084;5.090;2023-07-13T05:21:35;17.40;81.70
13606;DHT22;6874;52.084;5.090;2023-07-13T05:24:01;17.40;81.80
13606;DHT22;6874;52.084;5.090;2023-07-13T05:26:27;17.40;82.30
13606;DHT22;6874;52.084;5.090;2023-07-13T05:28:52;17.40;82.90
13606;DHT22;6874;52.084;5.090;2023-07-13T05:31:21;17.50;82.70
13606;DHT22;6874;52.084;5.090;2023-07-13T05:33:46;17.40;82.90
13606;DHT22;6874;52.084;5.090;2023-07-13T05:36:12;17.50;83.10
13606;DHT22;6874;52.084;5.090;2023-07-13T05:38:38;17.50;82.80
13606;DHT22;6874;52.084;5.090;2023-07-13T05:41:03;17.50;83.30
13606;DHT22;6874;52.084;5.090;2023-07-13T05:43:29;17.50;83.30
13606;DHT22;6874;52.084;5.090;2023-07-13T05:45:56;17.60;83.40
13606;DHT22;6874;52.084;5.090;2023-07-13T05:48:22;17.60;83.30
13606;DHT22;6874;52.084;5.090;2023-07-13T05:50:48;17.60;83.40
13606;DHT22;6874;52.084;5.090;2023-07-13T05:53:14;17.60;83.40
13606;DHT22;6874;52.084;5.090;2023-07-13T05:55:43;17.60;83.20
13606;DHT22;6874;52.084;5.090;2023-07-13T05:58:10;17.60;83.40
13606;DHT22;6874;52.084;5.090;2023-07-13T06:00:36;17.70;84.00
13606;DHT22;6874;52.084;5.090;2023-07-13T06:03:02;17.70;83.90
13606;DHT22;6874;52.084;5.090;2023-07-13T06:05:28;17.70;84.00
13606;DHT22;6874;52.084;5.090;2023-07-13T06:07:54;17.70;84.60
13606;DHT22;6874;52.084;5.090;2023-07-13T06:10:20;17.70;84.70
13606;DHT22;6874;52.084;5.090;2023-07-13T06:12:46;17.70;85.60
13606;DHT22;6874;52.084;5.090;2023-07-13T06:15:12;17.80;85.00
13606;DHT22;6874;52.084;5.090;2023-07-13T06:17:37;17.80;86.10
13606;DHT22;6874;52.084;5.090;2023-07-13T06:20:03;17.80;86.10
13606;DHT22;6874;52.084;5.090;2023-07-13T06:22:29;17.90;86.40
13606;DHT22;6874;52.084;5.090;2023-07-13T06:24:55;18.00;87.60
13606;DHT22;6874;52.084;5.090;2023-07-13T06:27:20;18.00;86.70
13606;DHT22;6874;52.084;5.090;2023-07-13T06:29:46;18.00;86.20
13606;DHT22;6874;52.084;5.090;2023-07-13T06:32:12;18.10;86.70
13606;DHT22;6874;52.084;5.090;2023-07-13T06:34:37;18.10;86.50
13606;DHT22;6874;52.084;5.090;2023-07-13T06:37:03;18.20;88.00
13606;DHT22;6874;52.084;5.090;2023-07-13T06:39:29;18.20;86.90
13606;DHT22;6874;52.084;5.090;2023-07-13T06:41:54;18.30;87.00
13606;DHT22;6874;52.084;5.090;2023-07-13T06:44:20;18.30;87.70
13606;DHT22;6874;52.084;5.090;2023-07-13T06:46:46;18.40;88.00
13606;DHT22;6874;52.084;5.090;2023-07-13T06:49:11;18.50;88.50
13606;DHT22;6874;52.084;5.090;2023-07-13T06:51:37;18.50;88.40
13606;DHT22;6874;52.084;5.090;2023-07-13T06:54:03;18.50;87.80
13606;DHT22;6874;52.084;5.090;2023-07-13T06:56:28;18.60;88.40
13606;DHT22;6874;52.084;5.090;2023-07-13T06:58:54;18.60;89.20
13606;DHT22;6874;52.084;5.090;2023-07-13T07:01:20;18.60;89.60
13606;DHT22;6874;52.084;5.090;2023-07-13T07:03:46;18.60;89.60
13606;DHT22;6874;52.084;5.090;2023-07-13T07:06:15;18.70;90.20
13606;DHT22;6874;52.084;5.090;2023-07-13T07:08:41;18.70;90.00
13606;DHT22;6874;52.084;5.090;2023-07-13T07:11:13;18.70;88.90
13606;DHT22;6874;52.084;5.090;2023-07-13T07:13:39;18.70;88.90
13606;DHT22;6874;52.084;5.090;2023-07-13T07:16:05;18.70;89.40
13606;DHT22;6874;52.084;5.090;2023-07-13T07:18:31;18.60;88.70
13606;DHT22;6874;52.084;5.090;2023-07-13T07:20:56;18.70;89.40
13606;DHT22;6874;52.084;5.090;2023-07-13T07:23:23;18.60;90.30
13606;DHT22;6874;52.084;5.090;2023-07-13T07:25:49;18.60;89.70
13606;DHT22;6874;52.084;5.090;2023-07-13T07:28:16;18.60;89.10
13606;DHT22;6874;52.084;5.090;2023-07-13T07:30:45;18.60;89.10
13606;DHT22;6874;52.084;5.090;2023-07-13T07:33:11;18.60;89.60
13606;DHT22;6874;52.084;5.090;2023-07-13T07:35:37;18.60;89.20
13606;DHT22;6874;52.084;5.090;2023-07-13T07:38:03;18.60;90.00
13606;DHT22;6874;52.084;5.090;2023-07-13T07:40:29;18.70;90.30
13606;DHT22;6874;52.084;5.090;2023-07-13T07:42:54;18.80;90.10
13606;DHT22;6874;52.084;5.090;2023-07-13T07:45:20;18.80;89.70
13606;DHT22;6874;52.084;5.090;2023-07-13T07:47:46;18.90;90.60
13606;DHT22;6874;52.084;5.090;2023-07-13T07:50:12;19.00;90.90
13606;DHT22;6874;52.084;5.090;2023-07-13T07:52:38;19.10;90.60
13606;DHT22;6874;52.084;5.090;2023-07-13T07:55:06;19.10;90.90
13606;DHT22;6874;52.084;5.090;2023-07-13T07:57:32;19.20;91.30
13606;DHT22;6874;52.084;5.090;2023-07-13T07:59:57;19.30;90.70
13606;DHT22;6874;52.084;5.090;2023-07-13T08:02:25;19.40;91.00
13606;DHT22;6874;52.084;5.090;2023-07-13T08:04:51;19.50;90.50
13606;DHT22;6874;52.084;5.090;2023-07-13T08:07:16;19.70;91.00
13606;DHT22;6874;52.084;5.090;2023-07-13T08:09:42;19.80;91.00
13606;DHT22;6874;52.084;5.090;2023-07-13T08:12:08;19.90;91.00
13606;DHT22;6874;52.084;5.090;2023-07-13T08:14:34;20.00;90.90
13606;DHT22;6874;52.084;5.090;2023-07-13T08:16:59;20.10;90.70
13606;DHT22;6874;52.084;5.090;2023-07-13T08:19:25;20.10;90.80
13606;DHT22;6874;52.084;5.090;2023-07-13T08:21:50;20.20;90.50
13606;DHT22;6874;52.084;5.090;2023-07-13T08:24:16;20.20;90.10
13606;DHT22;6874;52.084;5.090;2023-07-13T08:26:44;20.20;90.10
13606;DHT22;6874;52.084;5.090;2023-07-13T08:29:11;20.20;89.70
13606;DHT22;6874;52.084;5.090;2023-07-13T08:31:36;20.20;89.70
13606;DHT22;6874;52.084;5.090;2023-07-13T08:34:02;20.10;89.30
13606;DHT22;6874;52.084;5.090;2023-07-13T08:36:28;20.10;89.00
13606;DHT22;6874;52.084;5.090;2023-07-13T08:38:54;20.00;89.40
13606;DHT22;6874;52.084;5.090;2023-07-13T08:41:21;20.00;89.10
13606;DHT22;6874;52.084;5.090;2023-07-13T08:43:50;19.90;89.20
13606;DHT22;6874;52.084;5.090;2023-07-13T08:49:02;19.80;90.20
13606;DHT22;6874;52.084;5.090;2023-07-13T08:51:44;19.80;90.40
13606;DHT22;6874;52.084;5.090;2023-07-13T08:57:18;19.80;90.50
13606;DHT22;6874;52.084;5.090;2023-07-13T08:59:45;19.80;91.10
13606;DHT22;6874;52.084;5.090;2023-07-13T09:02:26;19.90;92.00
13606;DHT22;6874;52.084;5.090;2023-07-13T09:04:59;20.00;92.00
13606;DHT22;6874;52.084;5.090;2023-07-13T09:07:41;20.10;92.40
13606;DHT22;6874;52.084;5.090;2023-07-13T09:10:14;20.40;92.60
13606;DHT22;6874;52.084;5.090;2023-07-13T09:15:29;20.90;92.60
13606;DHT22;6874;52.084;5.090;2023-07-13T09:18:09;21.10;92.20
13606;DHT22;6874;52.084;5.090;2023-07-13T09:20:41;21.30;92.20
13606;DHT22;6874;52.084;5.090;2023-07-13T09:23:14;21.50;92.00
13606;DHT22;6874;52.084;5.090;2023-07-13T09:25:41;21.60;91.60
13606;DHT22;6874;52.084;5.090;2023-07-13T09:28:13;21.80;90.80
13606;DHT22;6874;52.084;5.090;2023-07-13T09:30:56;21.90;90.50
13606;DHT22;6874;52.084;5.090;2023-07-13T09:33:23;21.90;90.30
13606;DHT22;6874;52.084;5.090;2023-07-13T09:35:50;21.80;90.00
13606;DHT22;6874;52.084;5.090;2023-07-13T09:38:18;21.80;89.80
13606;DHT22;6874;52.084;5.090;2023-07-13T09:43:15;21.50;89.30
13606;DHT22;6874;52.084;5.090;2023-07-13T09:45:45;21.40;89.60
13606;DHT22;6874;52.084;5.090;2023-07-13T09:48:12;21.30;90.10
13606;DHT22;6874;52.084;5.090;2023-07-13T09:50:39;21.20;90.30
13606;DHT22;6874;52.084;5.090;2023-07-13T09:53:12;21.20;90.70
13606;DHT22;6874;52.084;5.090;2023-07-13T09:55:39;21.20;91.20
13606;DHT22;6874;52.084;5.090;2023-07-13T09:58:18;21.20;92.50
13606;DHT22;6874;52.084;5.090;2023-07-13T10:00:58;21.20;92.20
13606;DHT22;6874;52.084;5.090;2023-07-13T10:03:27;21.30;92.70
13606;DHT22;6874;52.084;5.090;2023-07-13T10:05:53;21.50;93.10
13606;DHT22;6874;52.084;5.090;2023-07-13T10:08:28;21.70;92.50
13606;DHT22;6874;52.084;5.090;2023-07-13T10:11:23;21.90;92.50
13606;DHT22;6874;52.084;5.090;2023-07-13T10:16:28;22.20;91.60
13606;DHT22;6874;52.084;5.090;2023-07-13T10:19:10;22.30;91.00
13606;DHT22;6874;52.084;5.090;2023-07-13T10:21:43;22.20;90.70
13606;DHT22;6874;52.084;5.090;2023-07-13T10:24:20;22.20;90.80
13606;DHT22;6874;52.084;5.090;2023-07-13T10:27:10;22.20;91.10
13606;DHT22;6874;52.084;5.090;2023-07-13T10:29:37;22.20;91.40
13606;DHT22;6874;52.084;5.090;2023-07-13T10:32:09;22.20;91.50
13606;DHT22;6874;52.084;5.090;2023-07-13T10:34:36;22.30;91.50
13606;DHT22;6874;52.084;5.090;2023-07-13T10:37:02;22.40;91.30
13606;DHT22;6874;52.084;5.090;2023-07-13T10:39:29;22.50;91.40
13606;DHT22;6874;52.084;5.090;2023-07-13T10:42:05;22.60;91.20
13606;DHT22;6874;52.084;5.090;2023-07-13T10:44:33;22.70;90.80
13606;DHT22;6874;52.084;5.090;2023-07-13T10:47:04;22.70;90.30
13606;DHT22;6874;52.084;5.090;2023-07-13T10:49:32;22.90;90.60
13606;DHT22;6874;52.084;5.090;2023-07-13T10:52:00;23.00;90.60
13606;DHT22;6874;52.084;5.090;2023-07-13T10:57:19;23.20;90.40
13606;DHT22;6874;52.084;5.090;2023-07-13T11:00:14;23.30;89.30
13606;DHT22;6874;52.084;5.090;2023-07-13T11:02:40;23.40;87.00
13606;DHT22;6874;52.084;5.090;2023-07-13T11:07:56;23.40;87.00
13606;DHT22;6874;52.084;5.090;2023-07-13T11:10:57;23.50;87.30
13606;DHT22;6874;52.084;5.090;2023-07-13T11:27:44;23.10;84.40
13606;DHT22;6874;52.084;5.090;2023-07-13T11:36:05;22.70;85.30
13606;DHT22;6874;52.084;5.090;2023-07-13T11:38:43;22.60;85.10
13606;DHT22;6874;52.084;5.090;2023-07-13T11:41:29;22.60;85.60
13606;DHT22;6874;52.084;5.090;2023-07-13T11:44:17;22.60;86.30
13606;DHT22;6874;52.084;5.090;2023-07-13T11:46:52;22.60;86.90
13606;DHT22;6874;52.084;5.090;2023-07-13T11:49:20;22.60;87.10
13606;DHT22;6874;52.084;5.090;2023-07-13T11:51:46;22.60;87.70
13606;DHT22;6874;52.084;5.090;2023-07-13T11:54:29;22.70;87.80
13606;DHT22;6874;52.084;5.090;2023-07-13T11:57:44;22.80;87.90
13606;DHT22;6874;52.084;5.090;2023-07-13T11:59:43;22.90;87.40
13606;DHT22;6874;52.084;5.090;2023-07-13T12:02:16;22.90;87.30
13606;DHT22;6874;52.084;5.090;2023-07-13T12:04:44;23.00;85.70
13606;DHT22;6874;52.084;5.090;2023-07-13T12:07:19;23.00;85.40
13606;DHT22;6874;52.084;5.090;2023-07-13T12:09:45;23.10;85.20
13606;DHT22;6874;52.084;5.090;2023-07-13T12:12:12;23.10;83.80
13606;DHT22;6874;52.084;5.090;2023-07-13T12:14:39;23.20;84.40
13606;DHT22;6874;52.084;5.090;2023-07-13T12:17:19;23.30;85.30
13606;DHT22;6874;52.084;5.090;2023-07-13T12:19:50;23.30;85.40
13606;DHT22;6874;52.084;5.090;2023-07-13T12:22:18;23.40;85.00
13606;DHT22;6874;52.084;5.090;2023-07-13T12:24:46;23.50;84.10
13606;DHT22;6874;52.084;5.090;2023-07-13T12:27:27;23.60;84.00
13606;DHT22;6874;52.084;5.090;2023-07-13T12:30:01;23.60;83.90
13606;DHT22;6874;52.084;5.090;2023-07-13T12:32:28;23.70;83.40
13606;DHT22;6874;52.084;5.090;2023-07-13T12:35:15;23.70;83.00
13606;DHT22;6874;52.084;5.090;2023-07-13T12:37:45;23.80;82.50
13606;DHT22;6874;52.084;5.090;2023-07-13T12:40:19;23.90;81.20
13606;DHT22;6874;52.084;5.090;2023-07-13T12:42:49;23.90;82.40
13606;DHT22;6874;52.084;5.090;2023-07-13T12:45:21;24.00;80.70
13606;DHT22;6874;52.084;5.090;2023-07-13T12:47:50;24.00;81.50
13606;DHT22;6874;52.084;5.090;2023-07-13T12:50:23;24.10;81.20
13606;DHT22;6874;52.084;5.090;2023-07-13T12:52:54;24.10;80.00
13606;DHT22;6874;52.084;5.090;2023-07-13T12:55:21;24.10;80.70
13606;DHT22;6874;52.084;5.090;2023-07-13T12:57:51;24.20;80.50
13606;DHT22;6874;52.084;5.090;2023-07-13T13:02:57;24.30;79.50
13606;DHT22;6874;52.084;5.090;2023-07-13T13:05:26;24.30;80.20
13606;DHT22;6874;52.084;5.090;2023-07-13T13:07:52;24.30;80.70
13606;DHT22;6874;52.084;5.090;2023-07-13T13:10:17;24.30;80.80
13606;DHT22;6874;52.084;5.090;2023-07-13T13:12:43;24.30;80.20
13606;DHT22;6874;52.084;5.090;2023-07-13T13:15:11;24.40;80.90
13606;DHT22;6874;52.084;5.090;2023-07-13T13:17:40;24.40;79.60
13606;DHT22;6874;52.084;5.090;2023-07-13T13:20:24;24.40;78.70
13606;DHT22;6874;52.084;5.090;2023-07-13T13:22:51;24.50;78.80
13606;DHT22;6874;52.084;5.090;2023-07-13T13:25:18;24.40;79.20
13606;DHT22;6874;52.084;5.090;2023-07-13T13:27:45;24.40;78.10
13606;DHT22;6874;52.084;5.090;2023-07-13T13:30:12;24.40;77.40
13606;DHT22;6874;52.084;5.090;2023-07-13T13:32:40;24.40;78.40
13606;DHT22;6874;52.084;5.090;2023-07-13T13:35:14;24.40;77.90
13606;DHT22;6874;52.084;5.090;2023-07-13T13:37:40;24.30;77.70
13606;DHT22;6874;52.084;5.090;2023-07-13T13:40:21;24.30;75.70
13606;DHT22;6874;52.084;5.090;2023-07-13T13:42:48;24.30;76.50
13606;DHT22;6874;52.084;5.090;2023-07-13T13:45:18;24.30;76.30
13606;DHT22;6874;52.084;5.090;2023-07-13T13:47:45;24.20;76.20
13606;DHT22;6874;52.084;5.090;2023-07-13T13:50:16;24.20;76.20
13606;DHT22;6874;52.084;5.090;2023-07-13T13:52:44;24.20;75.70
13606;DHT22;6874;52.084;5.090;2023-07-13T13:55:16;24.10;76.10
13606;DHT22;6874;52.084;5.090;2023-07-13T13:57:43;24.10;75.50
13606;DHT22;6874;52.084;5.090;2023-07-13T14:00:10;24.10;75.30
13606;DHT22;6874;52.084;5.090;2023-07-13T14:02:41;24.10;75.30
13606;DHT22;6874;52.084;5.090;2023-07-13T14:05:12;24.00;75.80
13606;DHT22;6874;52.084;5.090;2023-07-13T14:07:38;24.00;75.40
13606;DHT22;6874;52.084;5.090;2023-07-13T14:10:14;24.00;75.30
13606;DHT22;6874;52.084;5.090;2023-07-13T14:12:44;23.90;75.00
13606;DHT22;6874;52.084;5.090;2023-07-13T14:15:21;23.90;74.50
13606;DHT22;6874;52.084;5.090;2023-07-13T14:17:48;23.90;75.10
13606;DHT22;6874;52.084;5.090;2023-07-13T14:20:19;23.80;75.20
13606;DHT22;6874;52.084;5.090;2023-07-13T14:22:45;23.80;75.60
13606;DHT22;6874;52.084;5.090;2023-07-13T14:25:12;23.80;76.00
13606;DHT22;6874;52.084;5.090;2023-07-13T14:27:43;23.70;75.00
13606;DHT22;6874;52.084;5.090;2023-07-13T14:30:29;23.70;75.60
13606;DHT22;6874;52.084;5.090;2023-07-13T14:32:55;23.70;76.00
13606;DHT22;6874;52.084;5.090;2023-07-13T14:35:21;23.70;76.10
13606;DHT22;6874;52.084;5.090;2023-07-13T14:37:49;23.70;76.80
13606;DHT22;6874;52.084;5.090;2023-07-13T14:40:24;23.70;76.20
13606;DHT22;6874;52.084;5.090;2023-07-13T14:42:51;23.70;76.80
13606;DHT22;6874;52.084;5.090;2023-07-13T14:45:18;23.70;76.60
13606;DHT22;6874;52.084;5.090;2023-07-13T14:47:45;23.80;75.70
13606;DHT22;6874;52.084;5.090;2023-07-13T14:50:16;23.80;75.30
13606;DHT22;6874;52.084;5.090;2023-07-13T14:52:43;23.80;75.80
13606;DHT22;6874;52.084;5.090;2023-07-13T14:55:13;23.80;76.20
13606;DHT22;6874;52.084;5.090;2023-07-13T14:57:39;23.90;75.80
13606;DHT22;6874;52.084;5.090;2023-07-13T15:00:16;23.90;76.90
13606;DHT22;6874;52.084;5.090;2023-07-13T15:02:45;23.90;76.50
13606;DHT22;6874;52.084;5.090;2023-07-13T15:05:15;23.90;76.80
13606;DHT22;6874;52.084;5.090;2023-07-13T15:07:41;23.90;76.40
13606;DHT22;6874;52.084;5.090;2023-07-13T15:10:32;24.00;76.20
13606;DHT22;6874;52.084;5.090;2023-07-13T15:13:00;24.00;75.90
13606;DHT22;6874;52.084;5.090;2023-07-13T15:15:28;24.00;76.10
13606;DHT22;6874;52.084;5.090;2023-07-13T15:17:54;24.00;76.10
13606;DHT22;6874;52.084;5.090;2023-07-13T15:20:24;24.00;75.90
13606;DHT22;6874;52.084;5.090;2023-07-13T15:22:50;24.00;74.60
13606;DHT22;6874;52.084;5.090;2023-07-13T15:25:22;24.00;75.00
13606;DHT22;6874;52.084;5.090;2023-07-13T15:27:50;24.00;75.00
13606;DHT22;6874;52.084;5.090;2023-07-13T15:30:16;24.00;75.90
13606;DHT22;6874;52.084;5.090;2023-07-13T15:32:43;24.00;76.20
13606;DHT22;6874;52.084;5.090;2023-07-13T15:35:14;24.00;75.90
13606;DHT22;6874;52.084;5.090;2023-07-13T15:37:41;24.10;76.50
13606;DHT22;6874;52.084;5.090;2023-07-13T15:40:07;24.10;76.10
13606;DHT22;6874;52.084;5.090;2023-07-13T15:42:33;24.10;75.40
13606;DHT22;6874;52.084;5.090;2023-07-13T15:45:01;24.10;74.90
13606;DHT22;6874;52.084;5.090;2023-07-13T15:47:27;24.10;75.00
13606;DHT22;6874;52.084;5.090;2023-07-13T15:49:53;24.10;74.30
13606;DHT22;6874;52.084;5.090;2023-07-13T15:52:21;24.10;74.60
13606;DHT22;6874;52.084;5.090;2023-07-13T15:54:49;24.00;74.80
13606;DHT22;6874;52.084;5.090;2023-07-13T15:57:15;24.00;73.70
13606;DHT22;6874;52.084;5.090;2023-07-13T15:59:42;23.90;74.30
13606;DHT22;6874;52.084;5.090;2023-07-13T16:02:19;23.90;75.00
13606;DHT22;6874;52.084;5.090;2023-07-13T16:04:46;23.90;75.30
13606;DHT22;6874;52.084;5.090;2023-07-13T16:07:14;23.90;75.40
13606;DHT22;6874;52.084;5.090;2023-07-13T16:09:43;24.00;75.50
13606;DHT22;6874;52.084;5.090;2023-07-13T16:12:13;24.00;75.60
13606;DHT22;6874;52.084;5.090;2023-07-13T16:14:40;24.00;75.30
13606;DHT22;6874;52.084;5.090;2023-07-13T16:17:11;24.00;75.20
13606;DHT22;6874;52.084;5.090;2023-07-13T16:19:37;24.00;75.60
13606;DHT22;6874;52.084;5.090;2023-07-13T16:22:03;24.00;75.90
13606;DHT22;6874;52.084;5.090;2023-07-13T16:24:31;24.00;75.70
13606;DHT22;6874;52.084;5.090;2023-07-13T16:26:58;24.10;76.20
13606;DHT22;6874;52.084;5.090;2023-07-13T16:29:29;24.00;75.90
13606;DHT22;6874;52.084;5.090;2023-07-13T16:32:04;24.00;75.90
13606;DHT22;6874;52.084;5.090;2023-07-13T16:34:32;24.10;75.50